Flag for Qatar

Past Weather in Doha, Qatar — Yesterday and Last 2 Weeks

Currently: 72 °F. Sunny. (Weather station: Doha International Airport, Qatar). See more current weather

Past Weather in Doha — Graph

°F

Doha Temperature Yesterday

Maximum temperature yesterday: 81 °F (at 3:00 pm)
Minimum temperature yesterday: 55 °F (at 6:30 am)
Average temperature yesterday: 66 °F

High & Low Weather Summary for the Past Weeks

 TemperatureHumidityPressure
High81 °F (Jan 15, 3:00 pm)94% (Jan 3, 6:00 am)30.21 "Hg (Jan 3, 6:00 am)
Low55 °F (Jan 15, 6:30 am)9% (Jan 15, 1:00 pm)29.89 "Hg (Jan 16, 2:00 pm)
Average68 °F58%30.09 "Hg
* Reported Jan 1 4:00 pm — Jan 16 4:00 pm, Doha. Weather by CustomWeather, © 2021

Note: Actual official high and low records may vary slightly from our data, if they occured in-between our weather recording intervals... More about our weather records

Doha Weather History for the Previous 24 Hours

Scroll right to see more
 ConditionsComfort  
Time TempWeatherWind HumidityBarometerVisibility
4:00 pm
Sat, Jan 16
73 °FPassing clouds.5 mph50%29.89 "HgN/A
3:30 pm73 °FSunny.5 mph47%29.89 "Hg10 mi
3:00 pm75 °FPassing clouds.5 mph41%29.89 "HgN/A
2:30 pm75 °FPassing clouds.6 mph39%29.89 "HgN/A
2:00 pm81 °FPassing clouds.5 mph30%29.89 "HgN/A
1:30 pm81 °FSunny.5 mph28%29.92 "Hg10 mi
1:00 pm79 °FPassing clouds.6 mph26%29.92 "HgN/A
12:30 pm79 °FPassing clouds.5 mph23%29.92 "HgN/A
12:00 pm79 °FSunny.5 mph23%29.95 "Hg10 mi
11:30 am77 °FPassing clouds.5 mph24%29.98 "HgN/A
11:00 am77 °FPassing clouds.3 mph24%29.98 "HgN/A
10:30 am75 °FPassing clouds.3 mph25%30.01 "HgN/A
10:00 am75 °FSunny.2 mph27%30.01 "Hg10 mi
9:30 am72 °FPassing clouds.3 mph31%30.01 "HgN/A
9:00 am70 °FSunny.2 mph31%30.04 "Hg10 mi
8:30 am68 °FPassing clouds.3 mph33%30.01 "HgN/A
8:00 am66 °FPassing clouds.3 mph37%30.01 "HgN/A
7:30 am63 °FPassing clouds.3 mph45%30.01 "HgN/A
7:00 am61 °FPassing clouds.3 mph48%29.98 "HgN/A
6:30 am61 °FPassing clouds.3 mph72%29.98 "HgN/A
6:00 am61 °FPassing clouds.3 mph77%29.98 "HgN/A
5:30 am61 °FPassing clouds.6 mph88%29.98 "HgN/A
5:00 am61 °FPassing clouds.5 mph83%29.95 "HgN/A
4:30 am61 °FClear.3 mph83%29.95 "Hg10 mi
4:00 am63 °FClear.3 mph77%29.95 "Hg10 mi
3:30 am61 °FClear.3 mph77%29.95 "Hg10 mi
2:30 am63 °FClear.5 mph77%29.95 "Hg10 mi
2:00 am63 °FPassing clouds.3 mph77%29.95 "HgN/A
1:30 am63 °FPassing clouds.3 mph77%29.95 "HgN/A
1:00 am64 °FClear.3 mph73%29.95 "Hg10 mi
12:30 am64 °FClear.3 mph78%29.95 "Hg10 mi
12:00 am63 °FClear.3 mph73%29.95 "Hg10 mi
11:30 pm
Fri, Jan 15
63 °FClear.6 mph77%29.95 "Hg10 mi
11:00 pm64 °FClear.5 mph73%29.95 "Hg10 mi
9:30 pm64 °FClear.3 mph68%29.98 "Hg10 mi
9:00 pm64 °FClear.3 mph73%29.98 "Hg10 mi
8:30 pm64 °FClear.3 mph64%29.98 "Hg10 mi
8:00 pm64 °FClear.3 mph64%29.98 "Hg10 mi
7:30 pm64 °FClear.3 mph64%29.98 "Hg10 mi
7:00 pm64 °FClear.3 mph60%29.98 "Hg10 mi
6:30 pm66 °FClear.1 mph56%29.98 "Hg10 mi
6:00 pm68 °FClear.3 mph49%29.98 "Hg10 mi
5:30 pm68 °FClear.5 mph49%29.98 "Hg10 mi
5:00 pm70 °FSunny.5 mph46%29.95 "Hg10 mi
Weather by CustomWeather, © 2021

See weather overview